Time;durP1;ratioP1;P1;durP2;ratioP2;P2;SDS_P1;SDS_P2;PMS_P1;PMS_P2;Temp;Humidity;BMP_temperature;BMP_pressure;BME280_temperature;BME280_humidity;BME280_pressure;Samples;Min_cycle;Max_cycle;Signal;HPM_P1;HPM_P2
2023/06/29 00:02:14;;;;;;;;;;;;;;;13.94;81.74;100803.41;107567;1251;108688;-67
2023/06/29 00:04:42;;;;;;;;;;;;;;;13.92;81.60;100803.80;107645;1253;97835;-67
2023/06/29 00:07:10;;;;;;;;;;;;;;;13.92;81.55;100805.23;107599;1252;97894;-68
2023/06/29 00:09:39;;;;;;;;;;;;;;;13.91;81.60;100804.57;107604;1251;112238;-68
2023/06/29 00:12:08;;;;;;;;;;;;;;;13.91;81.64;100810.01;107621;1254;110138;-71
2023/06/29 00:14:36;;;;;;;;;;;;;;;13.92;81.68;100802.55;107613;1252;108231;-67
2023/06/29 00:17:04;;;;;;;;;;;;;;;13.92;81.84;100803.20;107621;1251;97815;-69
2023/06/29 00:19:32;;;;;;;;;;;;;;;13.92;81.96;100800.05;107571;1251;97835;-68
2023/06/29 00:22:00;;;;;;;;;;;;;;;13.91;82.07;100802.30;107562;1251;112246;-67
2023/06/29 00:24:29;;;;;;;;;;;;;;;13.89;82.53;100798.88;107614;1251;108704;-69
2023/06/29 00:26:57;;;;;;;;;;;;;;;13.85;82.76;100801.30;107550;1252;108466;-69
2023/06/29 00:29:27;;;;;;;;;;;;;;;13.77;82.78;100801.83;107429;1253;97791;-68
2023/06/29 00:31:57;;;;;;;;;;;;;;;13.74;82.65;100804.51;107638;1254;97841;-70
2023/06/29 00:34:24;;;;;;;;;;;;;;;13.70;82.65;100799.93;107625;1251;111273;-68
2023/06/29 00:36:53;;;;;;;;;;;;;;;13.68;82.53;100798.48;107589;1252;109646;-67
2023/06/29 00:39:21;;;;;;;;;;;;;;;13.68;82.69;100800.59;107620;1251;109954;-70
2023/06/29 00:41:55;;;;;;;;;;;;;;;13.64;82.40;100796.53;107595;1252;97829;-67
2023/06/29 00:44:24;;;;;;;;;;;;;;;13.60;81.97;100792.02;107634;1252;97847;-68
2023/06/29 00:46:54;;;;;;;;;;;;;;;13.60;82.22;100794.19;107610;1254;111797;-68
2023/06/29 00:49:22;;;;;;;;;;;;;;;13.57;82.27;100790.75;107625;1251;110037;-68
2023/06/29 00:51:52;;;;;;;;;;;;;;;13.51;82.04;100791.13;107588;1251;107684;-68
2023/06/29 00:54:21;;;;;;;;;;;;;;;13.47;81.87;100790.44;107616;1251;97797;-68
2023/06/29 00:56:49;;;;;;;;;;;;;;;13.44;81.82;100791.27;107657;1251;97809;-69
2023/06/29 00:59:18;;;;;;;;;;;;;;;13.41;81.68;100787.86;107647;1251;111252;-68
2023/06/29 01:01:46;;;;;;;;;;;;;;;13.40;82.22;100784.90;107585;1251;109246;-67
2023/06/29 01:04:22;;;;;;;;;;;;;;;13.37;82.19;100787.29;107599;1250;108857;-69
2023/06/29 01:07:09;;;;;;;;;;;;;;;13.36;81.97;100780.76;107603;1251;97672;-69
2023/06/29 01:09:38;;;;;;;;;;;;;;;13.36;81.82;100778.35;107627;1251;97801;-68
2023/06/29 01:12:08;;;;;;;;;;;;;;;13.38;81.97;100776.77;107638;1250;112021;-69
2023/06/29 01:14:37;;;;;;;;;;;;;;;13.41;82.18;100778.80;107585;1251;109400;-67
2023/06/29 01:17:07;;;;;;;;;;;;;;;13.41;81.88;100780.48;107518;1252;108289;-68
2023/06/29 01:19:35;;;;;;;;;;;;;;;13.38;81.72;100780.37;107536;1251;97767;-71
2023/06/29 01:22:18;;;;;;;;;;;;;;;13.38;81.92;100777.67;107599;1251;97680;-68
2023/06/29 01:24:46;;;;;;;;;;;;;;;13.36;81.69;100773.55;107637;1251;110719;-70
2023/06/29 01:27:15;;;;;;;;;;;;;;;13.35;81.70;100773.29;107603;1251;109884;-69
2023/06/29 01:29:43;;;;;;;;;;;;;;;13.31;81.73;100774.02;107626;1254;108040;-68
2023/06/29 01:32:11;;;;;;;;;;;;;;;13.26;81.34;100777.05;107632;1256;97774;-68
2023/06/29 01:34:40;;;;;;;;;;;;;;;13.24;81.50;100773.48;107618;1251;97821;-66
2023/06/29 01:37:08;;;;;;;;;;;;;;;13.21;81.65;100771.98;107598;1251;111490;-67
2023/06/29 01:39:43;;;;;;;;;;;;;;;13.16;81.27;100770.64;107605;1251;110125;-67
2023/06/29 01:42:12;;;;;;;;;;;;;;;13.14;81.21;100776.08;107598;1251;107651;-69
2023/06/29 01:44:40;;;;;;;;;;;;;;;13.13;81.23;100773.27;107553;1252;97844;-67
2023/06/29 01:47:09;;;;;;;;;;;;;;;13.14;81.16;100772.40;107616;1256;97856;-69
2023/06/29 01:49:38;;;;;;;;;;;;;;;13.16;81.08;100773.36;107605;1256;112002;-68
2023/06/29 01:52:07;;;;;;;;;;;;;;;13.17;80.99;100771.11;107599;1255;109589;-68
2023/06/29 01:54:35;;;;;;;;;;;;;;;13.17;80.71;100771.11;107597;1251;107802;-69
2023/06/29 01:57:07;;;;;;;;;;;;;;;13.16;80.77;100772.09;107522;1251;97828;-67
2023/06/29 01:59:35;;;;;;;;;;;;;;;13.15;80.50;100770.58;107635;1256;97799;-67
2023/06/29 02:02:05;;;;;;;;;;;;;;;13.14;80.31;100773.14;107631;1254;111503;-68
2023/06/29 02:04:33;;;;;;;;;;;;;;;13.11;79.87;100771.67;107613;1254;108078;-68
2023/06/29 02:07:02;;;;;;;;;;;;;;;13.09;79.88;100770.98;107570;1251;108101;-68
2023/06/29 02:09:30;;;;;;;;;;;;;;;13.07;79.84;100769.36;107580;1251;97813;-68
2023/06/29 02:11:59;;;;;;;;;;;;;;;13.03;79.78;100773.91;107625;1251;97700;-67
2023/06/29 02:14:28;;;;;;;;;;;;;;;13.05;80.03;100774.56;107604;1251;111597;-69
2023/06/29 02:16:57;;;;;;;;;;;;;;;13.08;80.22;100768.76;107619;1254;109622;-68
2023/06/29 02:19:25;;;;;;;;;;;;;;;13.04;79.82;100769.66;107598;1254;108547;-68
2023/06/29 02:21:53;;;;;;;;;;;;;;;13.02;79.70;100769.20;107640;1251;97707;-69
2023/06/29 02:24:23;;;;;;;;;;;;;;;13.00;79.56;100768.04;107627;1251;97742;-69
2023/06/29 02:26:52;;;;;;;;;;;;;;;13.00;79.65;100770.63;107612;1251;112414;-66
2023/06/29 02:29:21;;;;;;;;;;;;;;;12.97;79.38;100768.55;107545;1251;109289;-67
2023/06/29 02:31:53;;;;;;;;;;;;;;;12.97;79.59;100769.61;107578;1251;108516;-68
2023/06/29 02:34:22;;;;;;;;;;;;;;;13.00;79.75;100772.59;107616;1251;97713;-68
2023/06/29 02:36:51;;;;;;;;;;;;;;;13.05;79.73;100774.30;107657;1251;97834;-67
2023/06/29 02:39:19;;;;;;;;;;;;;;;13.07;79.60;100775.81;107574;1251;111329;-69
2023/06/29 02:41:47;;;;;;;;;;;;;;;13.11;79.66;100779.09;107557;1255;108113;-70
2023/06/29 02:44:16;;;;;;;;;;;;;;;13.13;79.81;100774.89;107601;1251;108287;-68
2023/06/29 02:46:46;;;;;;;;;;;;;;;13.11;79.47;100777.04;107612;1254;97685;-69
2023/06/29 02:49:15;;;;;;;;;;;;;;;13.09;79.08;100776.20;107490;1251;97910;-69
2023/06/29 02:51:44;;;;;;;;;;;;;;;13.06;78.70;100779.03;107548;1251;110960;-68
2023/06/29 02:54:13;;;;;;;;;;;;;;;13.02;78.51;100781.02;107611;1251;110066;-69
2023/06/29 02:56:41;;;;;;;;;;;;;;;13.01;78.61;100780.26;107544;1251;108592;-67
2023/06/29 02:59:09;;;;;;;;;;;;;;;13.00;78.30;100783.36;107539;1254;97950;-67
2023/06/29 03:01:38;;;;;;;;;;;;;;;12.99;78.18;100784.16;107598;1254;97905;-68
2023/06/29 03:04:06;;;;;;;;;;;;;;;13.01;78.20;100782.69;107613;1252;113029;-69
2023/06/29 03:06:34;;;;;;;;;;;;;;;13.05;78.17;100785.59;107596;1256;109700;-67
2023/06/29 03:09:03;;;;;;;;;;;;;;;13.10;78.37;100785.86;107574;1254;108363;-69
2023/06/29 03:11:31;;;;;;;;;;;;;;;13.14;78.15;100783.95;107593;1254;97778;-68
2023/06/29 03:13:59;;;;;;;;;;;;;;;13.21;78.46;100785.34;107593;1254;97814;-68
2023/06/29 03:16:27;;;;;;;;;;;;;;;13.24;78.13;100780.87;107634;1253;111670;-70
2023/06/29 03:18:55;;;;;;;;;;;;;;;13.27;78.19;100782.55;107612;1254;109819;-72
2023/06/29 03:21:23;;;;;;;;;;;;;;;13.31;78.26;100780.73;107622;1254;107539;-67
2023/06/29 03:23:52;;;;;;;;;;;;;;;13.37;78.65;100784.47;107578;1254;98379;-67
2023/06/29 03:26:20;;;;;;;;;;;;;;;13.40;78.70;100785.58;107544;1254;97845;-67
2023/06/29 03:28:48;;;;;;;;;;;;;;;13.43;78.39;100790.69;107635;1252;110756;-67
2023/06/29 03:31:16;;;;;;;;;;;;;;;13.46;78.18;100788.92;107605;1253;109926;-67
2023/06/29 03:33:45;;;;;;;;;;;;;;;13.48;77.85;100789.34;107567;1253;108585;-67
2023/06/29 03:36:13;;;;;;;;;;;;;;;13.49;77.23;100795.56;107619;1251;97919;-67
2023/06/29 03:38:42;;;;;;;;;;;;;;;13.48;76.86;100795.77;107675;1251;97834;-67
2023/06/29 03:41:10;;;;;;;;;;;;;;;13.50;76.74;100796.38;107656;1251;111429;-68
2023/06/29 03:43:39;;;;;;;;;;;;;;;13.55;76.81;100792.05;107599;1254;109935;-68
2023/06/29 03:46:08;;;;;;;;;;;;;;;13.58;76.52;100794.90;107609;1252;108352;-69
2023/06/29 03:48:36;;;;;;;;;;;;;;;13.61;76.23;100792.69;107640;1251;97707;-68
2023/06/29 03:51:05;;;;;;;;;;;;;;;13.63;75.52;100796.23;107593;1251;97701;-67
2023/06/29 03:53:33;;;;;;;;;;;;;;;13.68;75.57;100795.02;107649;1256;112031;-67
2023/06/29 03:56:01;;;;;;;;;;;;;;;13.73;75.48;100793.27;107635;1251;109794;-70
2023/06/29 03:58:29;;;;;;;;;;;;;;;13.78;75.35;100789.14;107631;1251;108583;-68
2023/06/29 04:00:57;;;;;;;;;;;;;;;13.83;75.15;100782.94;107646;1253;97765;-68
2023/06/29 04:03:25;;;;;;;;;;;;;;;13.87;74.96;100784.23;107667;1254;97812;-68
2023/06/29 04:05:54;;;;;;;;;;;;;;;13.95;75.15;100782.59;107625;1254;112495;-68
2023/06/29 04:08:22;;;;;;;;;;;;;;;14.02;75.21;100784.66;107615;1254;110030;-66
2023/06/29 04:10:50;;;;;;;;;;;;;;;14.11;75.36;100789.76;107607;1251;107837;-70
2023/06/29 04:13:19;;;;;;;;;;;;;;;14.19;75.15;100790.25;107600;1256;97815;-68
2023/06/29 04:15:47;;;;;;;;;;;;;;;14.25;74.94;100786.47;107594;1251;97886;-68
2023/06/29 04:18:15;;;;;;;;;;;;;;;14.30;74.30;100787.11;107654;1251;111319;-68
2023/06/29 04:20:43;;;;;;;;;;;;;;;14.33;73.23;100787.35;107610;1251;110439;-67
2023/06/29 04:23:14;;;;;;;;;;;;;;;14.36;73.64;100789.64;107597;1255;108313;-67
2023/06/29 04:25:43;;;;;;;;;;;;;;;14.41;73.29;100788.09;107530;1254;97841;-67
2023/06/29 04:28:12;;;;;;;;;;;;;;;14.45;72.96;100786.58;107631;1252;97705;-67
2023/06/29 04:30:41;;;;;;;;;;;;;;;14.50;72.48;100789.91;107627;1251;110825;-67
2023/06/29 04:33:10;;;;;;;;;;;;;;;14.56;72.86;100791.23;107626;1251;109871;-71
2023/06/29 04:35:42;;;;;;;;;;;;;;;14.62;71.72;100793.15;107563;1251;107496;-68
2023/06/29 04:38:11;;;;;;;;;;;;;;;14.65;70.46;100791.39;107636;1251;97814;-68
2023/06/29 04:40:39;;;;;;;;;;;;;;;14.66;69.01;100792.20;107604;1251;97835;-69
2023/06/29 04:43:08;;;;;;;;;;;;;;;14.70;69.27;100794.48;107643;1251;112179;-66
2023/06/29 04:45:36;;;;;;;;;;;;;;;14.78;69.50;100795.69;107577;1254;109544;-67
2023/06/29 04:48:05;;;;;;;;;;;;;;;14.85;69.44;100794.16;107676;1251;107932;-67
2023/06/29 04:50:36;;;;;;;;;;;;;;;14.93;68.91;100791.55;107682;1251;97697;-69
2023/06/29 04:53:09;;;;;;;;;;;;;;;14.98;67.43;100789.02;107634;1251;97829;-67
2023/06/29 04:55:38;;;;;;;;;;;;;;;15.02;66.45;100795.64;107622;1253;111713;-70
2023/06/29 04:58:06;;;;;;;;;;;;;;;15.06;66.39;100795.74;107582;1252;109562;-67
2023/06/29 05:00:34;;;;;;;;;;;;;;;15.11;66.85;100796.27;107623;1251;108469;-68
2023/06/29 05:03:03;;;;;;;;;;;;;;;15.14;66.62;100798.98;107610;1251;98004;-67
2023/06/29 05:05:32;;;;;;;;;;;;;;;15.19;66.70;100797.81;107630;1251;97700;-67
2023/06/29 05:08:00;;;;;;;;;;;;;;;15.23;66.49;100798.46;107645;1254;112127;-68
2023/06/29 05:10:28;;;;;;;;;;;;;;;15.29;65.88;100793.13;107598;1251;109137;-71
2023/06/29 05:12:56;;;;;;;;;;;;;;;15.34;65.66;100788.02;107604;1251;107294;-70
2023/06/29 05:15:25;;;;;;;;;;;;;;;15.40;65.93;100787.79;107648;1255;97950;-68
2023/06/29 05:17:53;;;;;;;;;;;;;;;15.45;65.95;100791.35;107618;1251;97922;-68
2023/06/29 05:20:22;;;;;;;;;;;;;;;15.48;64.61;100790.83;107626;1251;111993;-67
2023/06/29 05:22:50;;;;;;;;;;;;;;;15.51;64.64;100791.63;107640;1251;109194;-69
2023/06/29 05:25:19;;;;;;;;;;;;;;;15.55;64.71;100792.23;107625;1251;108191;-68
2023/06/29 05:27:47;;;;;;;;;;;;;;;15.58;64.71;100795.86;107639;1254;97896;-69
2023/06/29 05:30:16;;;;;;;;;;;;;;;15.60;64.37;100796.38;107679;1251;97701;-68
2023/06/29 05:32:45;;;;;;;;;;;;;;;15.63;64.60;100787.94;107621;1251;112106;-69
2023/06/29 05:35:13;;;;;;;;;;;;;;;15.69;64.63;100788.98;107659;1251;109440;-69
2023/06/29 05:37:42;;;;;;;;;;;;;;;15.73;64.15;100789.59;107601;1251;108678;-66
2023/06/29 05:40:11;;;;;;;;;;;;;;;15.77;63.83;100785.56;107581;1251;97855;-66
2023/06/29 05:42:39;;;;;;;;;;;;;;;15.81;63.80;100785.64;107614;1251;97828;-70
2023/06/29 05:45:08;;;;;;;;;;;;;;;15.88;64.00;100780.40;107616;1251;112116;-69
2023/06/29 05:47:37;;;;;;;;;;;;;;;15.95;64.21;100776.35;107662;1251;108636;-68
2023/06/29 05:50:06;;;;;;;;;;;;;;;16.06;64.47;100775.48;107550;1251;108430;-70
2023/06/29 05:52:35;;;;;;;;;;;;;;;16.15;63.43;100771.48;107567;1251;97838;-69
2023/06/29 05:55:03;;;;;;;;;;;;;;;16.24;63.70;100772.20;107582;1251;97688;-68
2023/06/29 05:57:31;;;;;;;;;;;;;;;16.35;63.33;100776.10;107632;1254;112501;-67
2023/06/29 05:59:59;;;;;;;;;;;;;;;16.44;62.17;100773.73;107650;1254;108948;-69
2023/06/29 06:02:28;;;;;;;;;;;;;;;16.53;62.13;100779.20;107602;1251;107929;-70
2023/06/29 06:04:57;;;;;;;;;;;;;;;16.62;62.10;100776.08;107543;1252;97691;-69
2023/06/29 06:07:29;;;;;;;;;;;;;;;16.71;60.80;100779.73;107603;1255;97816;-67
2023/06/29 06:09:59;;;;;;;;;;;;;;;16.81;60.68;100773.62;107578;1254;112168;-69
2023/06/29 06:12:27;;;;;;;;;;;;;;;16.89;59.92;100774.63;107644;1251;109760;-67
2023/06/29 06:14:56;;;;;;;;;;;;;;;16.99;60.17;100769.17;107559;1251;108499;-67
2023/06/29 06:17:24;;;;;;;;;;;;;;;17.08;59.30;100766.16;107575;1251;97819;-68
2023/06/29 06:19:54;;;;;;;;;;;;;;;17.13;58.20;100761.17;107568;1251;97767;-69
2023/06/29 06:22:22;;;;;;;;;;;;;;;17.19;58.17;100762.88;107585;1251;112161;-67
2023/06/29 06:24:51;;;;;;;;;;;;;;;17.26;57.59;100759.86;107609;1251;110087;-67
2023/06/29 06:27:19;;;;;;;;;;;;;;;17.36;58.20;100761.09;107641;1251;107217;-68
2023/06/29 06:29:47;;;;;;;;;;;;;;;17.44;57.22;100752.84;107597;1256;98017;-68
2023/06/29 06:32:16;;;;;;;;;;;;;;;17.52;56.67;100751.75;107635;1251;97804;-67
2023/06/29 06:34:45;;;;;;;;;;;;;;;17.58;56.36;100746.13;107607;1251;111491;-68
2023/06/29 06:37:14;;;;;;;;;;;;;;;17.65;56.10;100749.27;107535;1251;110008;-69
2023/06/29 06:39:42;;;;;;;;;;;;;;;17.75;55.72;100743.43;107568;1254;107471;-68
2023/06/29 06:42:11;;;;;;;;;;;;;;;17.82;55.08;100745.48;107509;1251;97813;-68
2023/06/29 06:44:50;;;;;;;;;;;;;;;17.88;54.43;100745.84;107612;1250;97710;-67
2023/06/29 06:47:19;;;;;;;;;;;;;;;17.94;54.90;100743.02;107618;1251;110334;-67
2023/06/29 06:49:47;;;;;;;;;;;;;;;18.02;55.01;100745.61;107594;1256;110524;-67
2023/06/29 06:52:16;;;;;;;;;;;;;;;18.11;54.38;100750.42;107521;1254;108424;-67
2023/06/29 06:54:44;;;;;;;;;;;;;;;18.20;54.62;100746.05;107701;1255;97825;-67
2023/06/29 06:57:12;;;;;;;;;;;;;;;18.27;53.20;100742.04;107640;1255;97808;-68
2023/06/29 06:59:40;;;;;;;;;;;;;;;18.36;52.61;100745.91;107637;1254;112138;-70
2023/06/29 07:02:12;;;;;;;;;;;;;;;18.46;52.46;100732.52;107659;1254;109340;-70
2023/06/29 07:04:41;;;;;;;;;;;;;;;18.60;53.43;100729.93;107564;1255;108320;-70
2023/06/29 07:07:09;;;;;;;;;;;;;;;18.73;53.32;100733.94;107607;1254;97931;-66
2023/06/29 07:09:38;;;;;;;;;;;;;;;18.83;52.11;100729.58;107596;1254;97829;-69
2023/06/29 07:12:06;;;;;;;;;;;;;;;18.96;51.92;100729.63;107656;1251;111387;-67
2023/06/29 07:14:34;;;;;;;;;;;;;;;19.16;51.56;100723.34;107622;1254;110004;-69
2023/06/29 07:17:03;;;;;;;;;;;;;;;19.41;51.73;100718.95;107609;1253;108012;-68
2023/06/29 07:19:31;;;;;;;;;;;;;;;19.61;49.25;100725.27;107598;1254;97854;-70
2023/06/29 07:22:03;;;;;;;;;;;;;;;19.90;48.19;100722.36;107583;1251;97688;-68
2023/06/29 07:24:36;;;;;;;;;;;;;;;20.13;47.87;100725.16;107708;1254;109690;-67
2023/06/29 07:27:05;;;;;;;;;;;;;;;20.33;47.25;100734.81;107646;1254;109964;-68
2023/06/29 07:29:33;;;;;;;;;;;;;;;20.44;45.83;100731.92;107502;1257;107918;-69
2023/06/29 07:32:02;;;;;;;;;;;;;;;20.55;44.80;100736.94;107641;1256;97828;-68
2023/06/29 07:34:30;;;;;;;;;;;;;;;20.62;45.55;100732.77;107683;1251;97925;-68
2023/06/29 07:36:58;;;;;;;;;;;;;;;20.67;44.94;100735.61;107554;1254;112137;-68
2023/06/29 07:39:27;;;;;;;;;;;;;;;20.73;44.42;100741.94;107653;1254;108748;-69
2023/06/29 07:41:55;;;;;;;;;;;;;;;20.73;43.50;100744.48;107545;1254;107986;-66
2023/06/29 07:44:27;;;;;;;;;;;;;;;20.71;44.00;100740.63;107659;1255;97884;-69
2023/06/29 07:46:59;;;;;;;;;;;;;;;20.64;43.54;100747.45;107550;1257;97825;-68
2023/06/29 07:49:27;;;;;;;;;;;;;;;20.66;43.83;100745.98;107590;1256;111384;-68
2023/06/29 07:51:55;;;;;;;;;;;;;;;20.77;44.22;100736.77;107581;1251;109167;-67
2023/06/29 07:54:23;;;;;;;;;;;;;;;21.03;44.79;100731.45;107524;1251;107930;-69
2023/06/29 07:56:54;;;;;;;;;;;;;;;21.31;44.36;100721.12;107474;1254;97698;-68
2023/06/29 07:59:26;;;;;;;;;;;;;;;21.52;44.37;100731.70;107688;1250;97668;-68
2023/06/29 08:01:55;;;;;;;;;;;;;;;21.74;44.30;100733.46;107018;1251;687403;-68
2023/06/29 08:04:24;;;;;;;;;;;;;;;21.91;44.28;100739.97;107566;1251;109604;-68
2023/06/29 08:06:54;;;;;;;;;;;;;;;22.01;43.13;100744.84;107594;1251;108814;-69
2023/06/29 08:09:23;;;;;;;;;;;;;;;21.98;42.14;100750.75;107559;1251;97902;-69
2023/06/29 08:11:51;;;;;;;;;;;;;;;21.90;42.85;100749.33;107606;1251;97896;-69
2023/06/29 08:14:20;;;;;;;;;;;;;;;21.89;43.46;100749.57;107604;1251;112777;-70
2023/06/29 08:16:48;;;;;;;;;;;;;;;21.94;42.52;100750.23;107606;1250;109866;-67
2023/06/29 08:19:16;;;;;;;;;;;;;;;21.89;42.08;100752.36;107587;1251;108886;-67
2023/06/29 08:21:47;;;;;;;;;;;;;;;21.96;42.57;100748.91;107553;1251;97843;-67
2023/06/29 08:24:15;;;;;;;;;;;;;;;21.93;42.80;100755.31;107651;1254;97813;-68
2023/06/29 08:26:45;;;;;;;;;;;;;;;21.84;43.03;100745.88;107606;1250;112188;-67
2023/06/29 08:29:13;;;;;;;;;;;;;;;21.87;43.87;100741.88;107592;1251;109504;-70
2023/06/29 08:31:41;;;;;;;;;;;;;;;21.84;43.37;100743.52;107521;1251;108305;-66
2023/06/29 08:34:09;;;;;;;;;;;;;;;21.83;43.68;100742.08;107516;1252;97695;-68
2023/06/29 08:36:37;;;;;;;;;;;;;;;21.85;43.81;100742.97;107593;1256;97692;-68
2023/06/29 08:39:07;;;;;;;;;;;;;;;21.98;44.08;100739.67;107617;1251;111086;-68
2023/06/29 08:41:36;;;;;;;;;;;;;;;22.15;44.00;100734.25;107579;1257;109468;-68
2023/06/29 08:44:04;;;;;;;;;;;;;;;22.38;43.31;100733.79;107561;1251;108821;-67
2023/06/29 08:46:33;;;;;;;;;;;;;;;22.51;42.78;100729.95;107545;1256;97901;-67
2023/06/29 08:49:03;;;;;;;;;;;;;;;22.67;42.75;100728.63;107575;1257;97704;-71
2023/06/29 08:51:34;;;;;;;;;;;;;;;22.77;42.43;100740.70;107611;1256;111404;-68
2023/06/29 08:54:03;;;;;;;;;;;;;;;22.80;41.77;100740.46;107652;1254;109277;-69
2023/06/29 08:56:32;;;;;;;;;;;;;;;22.74;41.90;100738.39;107647;1253;107443;-68
2023/06/29 08:59:01;;;;;;;;;;;;;;;22.76;42.91;100743.05;107525;1251;97783;-69
2023/06/29 09:01:30;;;;;;;;;;;;;;;22.80;42.80;100746.11;107579;1251;97802;-69
2023/06/29 09:04:00;;;;;;;;;;;;;;;22.96;42.08;100747.05;107579;1251;110439;-70
2023/06/29 09:06:29;;;;;;;;;;;;;;;23.09;41.71;100747.48;107629;1251;107898;-68
2023/06/29 09:08:58;;;;;;;;;;;;;;;23.27;41.35;100741.73;107580;1250;108056;-66
2023/06/29 09:11:26;;;;;;;;;;;;;;;23.62;41.21;100739.51;107565;1256;98432;-68
2023/06/29 09:13:55;;;;;;;;;;;;;;;23.78;41.40;100742.40;107583;1257;97745;-67
2023/06/29 09:16:28;;;;;;;;;;;;;;;23.64;40.81;100757.48;107540;1254;111728;-68
2023/06/29 09:18:57;;;;;;;;;;;;;;;23.32;40.78;100750.92;107646;1255;109007;-67
2023/06/29 09:21:28;;;;;;;;;;;;;;;23.30;42.17;100749.16;107564;1257;108493;-66
2023/06/29 09:24:00;;;;;;;;;;;;;;;23.39;42.00;100745.50;107591;1254;98007;-66
2023/06/29 09:26:29;;;;;;;;;;;;;;;23.33;41.93;100746.39;107672;1256;97765;-67
2023/06/29 09:29:01;;;;;;;;;;;;;;;23.36;42.02;100743.16;107691;1264;111560;-67
2023/06/29 09:31:33;;;;;;;;;;;;;;;23.31;42.05;100745.86;107658;1251;107732;-68
2023/06/29 09:34:19;;;;;;;;;;;;;;;23.13;42.44;100749.36;107617;1251;107675;-68
2023/06/29 09:36:49;;;;;;;;;;;;;;;23.00;42.80;100749.77;107602;1251;97812;-72
2023/06/29 09:39:19;;;;;;;;;;;;;;;22.99;43.12;100751.39;107568;1251;97698;-70
2023/06/29 09:41:50;;;;;;;;;;;;;;;22.93;43.23;100748.66;107479;1251;111698;-67
2023/06/29 09:44:19;;;;;;;;;;;;;;;22.80;43.31;100745.23;107674;1254;109692;-67
2023/06/29 09:46:48;;;;;;;;;;;;;;;22.76;43.82;100746.01;107559;1256;108307;-67
2023/06/29 09:49:20;;;;;;;;;;;;;;;22.68;44.20;100747.46;107590;1251;97900;-68
2023/06/29 09:52:01;;;;;;;;;;;;;;;22.57;44.37;100747.30;107516;1251;97704;-66
2023/06/29 09:54:33;;;;;;;;;;;;;;;22.45;44.64;100749.73;107546;1254;111498;-68
2023/06/29 09:57:05;;;;;;;;;;;;;;;22.30;45.09;100750.31;107485;1254;110457;-67
2023/06/29 09:59:51;;;;;;;;;;;;;;;22.13;44.96;100752.33;107476;1251;107000;-66
2023/06/29 10:02:20;;;;;;;;;;;;;;;22.02;45.33;100756.39;107457;1256;97851;-68
2023/06/29 10:04:49;;;;;;;;;;;;;;;21.97;46.08;100758.17;107628;1251;97847;-67
2023/06/29 10:07:21;;;;;;;;;;;;;;;21.91;46.25;100758.34;107484;1251;112754;-69
2023/06/29 10:09:50;;;;;;;;;;;;;;;21.81;45.78;100754.05;107563;1251;108053;-67
2023/06/29 10:12:22;;;;;;;;;;;;;;;21.75;46.20;100757.00;107528;1254;108549;-68
2023/06/29 10:14:51;;;;;;;;;;;;;;;21.74;46.57;100756.08;107500;1251;97825;-68
2023/06/29 10:17:22;;;;;;;;;;;;;;;21.75;46.77;100754.05;107529;1251;98188;-66
2023/06/29 10:19:52;;;;;;;;;;;;;;;21.80;47.00;100756.66;107475;1251;111224;-67
2023/06/29 10:22:21;;;;;;;;;;;;;;;21.89;47.34;100757.96;107529;1251;109943;-68
2023/06/29 10:24:54;;;;;;;;;;;;;;;21.97;47.21;100762.27;107545;1251;107024;-68
2023/06/29 10:27:24;;;;;;;;;;;;;;;22.02;47.13;100762.84;107497;1254;97803;-67
2023/06/29 10:29:52;;;;;;;;;;;;;;;22.02;46.25;100761.83;107627;1251;97698;-67
2023/06/29 10:32:30;;;;;;;;;;;;;;;21.93;46.08;100760.88;107535;1250;110997;-69
2023/06/29 10:35:01;;;;;;;;;;;;;;;21.80;46.00;100757.42;107570;1251;109379;-69
2023/06/29 10:37:46;;;;;;;;;;;;;;;21.80;46.59;100756.46;107557;1251;108246;-70
2023/06/29 10:40:20;;;;;;;;;;;;;;;21.87;46.85;100760.24;107643;1251;97848;-68
2023/06/29 10:42:51;;;;;;;;;;;;;;;21.92;46.98;100755.17;107567;1253;97806;-67
2023/06/29 10:45:21;;;;;;;;;;;;;;;22.02;46.82;100754.16;107572;1251;111239;-72
2023/06/29 10:47:55;;;;;;;;;;;;;;;22.15;46.92;100747.44;107588;1251;109404;-68
2023/06/29 10:50:43;;;;;;;;;;;;;;;22.39;47.07;100752.80;107595;1251;108284;-71
2023/06/29 10:53:16;;;;;;;;;;;;;;;22.60;45.70;100753.88;107517;1251;97917;-71
2023/06/29 10:55:44;;;;;;;;;;;;;;;22.66;44.68;100750.14;107547;1251;97796;-68
2023/06/29 10:58:13;;;;;;;;;;;;;;;22.72;44.16;100750.24;107556;1251;110945;-67
2023/06/29 11:00:42;;;;;;;;;;;;;;;22.63;43.22;100753.45;107473;1251;109306;-67
2023/06/29 11:03:12;;;;;;;;;;;;;;;22.63;43.44;100750.11;107515;1251;108145;-68
2023/06/29 11:05:40;;;;;;;;;;;;;;;22.72;43.48;100751.13;107606;1251;97831;-70
2023/06/29 11:08:09;;;;;;;;;;;;;;;22.94;43.85;100746.77;107551;1251;97897;-66
2023/06/29 11:10:37;;;;;;;;;;;;;;;23.03;42.49;100755.66;107655;1251;111709;-68
2023/06/29 11:13:07;;;;;;;;;;;;;;;23.11;42.68;100748.11;107539;1251;109729;-68
2023/06/29 11:15:35;;;;;;;;;;;;;;;23.37;42.56;100740.98;107610;1251;108746;-68
2023/06/29 11:18:05;;;;;;;;;;;;;;;23.66;41.93;100744.16;107647;1251;97820;-68
2023/06/29 11:20:36;;;;;;;;;;;;;;;23.78;41.33;100749.20;107504;1254;97912;-68
2023/06/29 11:23:07;;;;;;;;;;;;;;;24.02;41.62;100743.77;107602;1255;111770;-67
2023/06/29 11:25:36;;;;;;;;;;;;;;;24.19;40.71;100742.98;107485;1251;110111;-68
2023/06/29 11:28:04;;;;;;;;;;;;;;;24.34;41.09;100737.61;107589;1251;108121;-69
2023/06/29 11:30:37;;;;;;;;;;;;;;;24.67;41.01;100740.54;107506;1253;97857;-67
2023/06/29 11:33:06;;;;;;;;;;;;;;;24.96;39.36;100734.66;107555;1251;97822;-67
2023/06/29 11:35:55;;;;;;;;;;;;;;;25.46;40.01;100732.73;107483;1251;111677;-68
2023/06/29 11:38:23;;;;;;;;;;;;;;;25.91;38.37;100727.13;107518;1251;109977;-67
2023/06/29 11:41:04;;;;;;;;;;;;;;;26.11;37.13;100723.43;107631;1251;107883;-68
2023/06/29 11:43:33;;;;;;;;;;;;;;;26.32;38.12;100715.55;107532;1254;98042;-65
2023/06/29 11:46:02;;;;;;;;;;;;;;;26.87;37.23;100712.60;107528;1251;97851;-67
2023/06/29 11:48:30;;;;;;;;;;;;;;;26.76;35.43;100714.33;107513;1254;111444;-67
2023/06/29 11:50:59;;;;;;;;;;;;;;;26.64;36.53;100709.31;107628;1254;109150;-66
2023/06/29 11:53:28;;;;;;;;;;;;;;;26.43;36.52;100703.04;107615;1251;107318;-68
2023/06/29 11:55:57;;;;;;;;;;;;;;;26.14;36.94;100701.06;107586;1254;97827;-67
2023/06/29 11:58:32;;;;;;;;;;;;;;;25.75;37.89;100706.42;107648;1251;98144;-68
2023/06/29 12:01:01;;;;;;;;;;;;;;;25.14;37.84;100701.41;107644;1254;111783;-67
2023/06/29 12:03:29;;;;;;;;;;;;;;;24.72;38.60;100699.51;107695;1251;109648;-68
2023/06/29 12:05:59;;;;;;;;;;;;;;;24.47;39.76;100706.61;107556;1251;105908;-69
2023/06/29 12:08:36;;;;;;;;;;;;;;;24.22;39.72;100700.39;107547;1251;97868;-69
2023/06/29 12:11:05;;;;;;;;;;;;;;;23.89;40.09;100699.38;107558;1251;97716;-69
2023/06/29 12:13:33;;;;;;;;;;;;;;;23.67;40.71;100698.23;107527;1251;110891;-69
2023/06/29 12:16:03;;;;;;;;;;;;;;;23.59;41.24;100695.12;107649;1254;108858;-68
2023/06/29 12:18:34;;;;;;;;;;;;;;;23.66;41.74;100694.39;107674;1253;108109;-68
2023/06/29 12:21:05;;;;;;;;;;;;;;;23.68;41.96;100699.30;107635;1256;98490;-68
2023/06/29 12:23:33;;;;;;;;;;;;;;;23.70;42.30;100696.76;107577;1251;97726;-67
2023/06/29 12:26:02;;;;;;;;;;;;;;;23.68;42.68;100695.05;107571;1251;111116;-67
2023/06/29 12:28:31;;;;;;;;;;;;;;;23.70;43.15;100697.56;107526;1251;108814;-67
2023/06/29 12:31:01;;;;;;;;;;;;;;;23.73;43.17;100699.31;107486;1251;108228;-66
2023/06/29 12:33:29;;;;;;;;;;;;;;;23.74;43.53;100696.67;107466;1254;97837;-65